sensor_id;sensor_type;location;lat;lon;timestamp;temperature;humidity
37956;DHT22;23776;51.592;7.180;2023-04-08T00:10:58;6.10;85.40
37956;DHT22;23776;51.592;7.180;2023-04-08T00:13:24;6.10;83.90
37956;DHT22;23776;51.592;7.180;2023-04-08T00:15:50;6.60;80.90
37956;DHT22;23776;51.592;7.180;2023-04-08T00:20:43;6.10;76.90
37956;DHT22;23776;51.592;7.180;2023-04-08T00:28:00;5.90;82.40
37956;DHT22;23776;51.592;7.180;2023-04-08T00:30:26;5.90;83.30
37956;DHT22;23776;51.592;7.180;2023-04-08T00:32:52;5.90;82.20
37956;DHT22;23776;51.592;7.180;2023-04-08T00:35:18;5.90;80.70
37956;DHT22;23776;51.592;7.180;2023-04-08T00:37:44;5.80;78.60
37956;DHT22;23776;51.592;7.180;2023-04-08T00:47:29;5.60;84.10
37956;DHT22;23776;51.592;7.180;2023-04-08T00:49:55;5.60;86.60
37956;DHT22;23776;51.592;7.180;2023-04-08T01:02:28;5.60;80.80
37956;DHT22;23776;51.592;7.180;2023-04-08T01:10:25;5.50;74.40
37956;DHT22;23776;51.592;7.180;2023-04-08T01:12:55;5.40;74.20
37956;DHT22;23776;51.592;7.180;2023-04-08T01:15:21;5.30;74.00
37956;DHT22;23776;51.592;7.180;2023-04-08T01:17:49;5.30;78.60
37956;DHT22;23776;51.592;7.180;2023-04-08T01:20:18;5.20;78.60
37956;DHT22;23776;51.592;7.180;2023-04-08T01:23:05;5.20;78.40
37956;DHT22;23776;51.592;7.180;2023-04-08T01:25:31;5.10;79.80
37956;DHT22;23776;51.592;7.180;2023-04-08T01:27:59;5.10;80.80
37956;DHT22;23776;51.592;7.180;2023-04-08T01:30:27;5.00;77.90
37956;DHT22;23776;51.592;7.180;2023-04-08T01:32:55;5.00;84.10
37956;DHT22;23776;51.592;7.180;2023-04-08T01:35:22;5.00;84.80
37956;DHT22;23776;51.592;7.180;2023-04-08T01:37:49;4.90;84.40
37956;DHT22;23776;51.592;7.180;2023-04-08T01:40:17;4.80;85.00
37956;DHT22;23776;51.592;7.180;2023-04-08T01:42:49;4.90;85.50
37956;DHT22;23776;51.592;7.180;2023-04-08T01:45:16;5.00;83.80
37956;DHT22;23776;51.592;7.180;2023-04-08T01:47:44;5.00;81.10
37956;DHT22;23776;51.592;7.180;2023-04-08T01:52:40;4.90;83.10
37956;DHT22;23776;51.592;7.180;2023-04-08T01:57:36;4.90;80.30
37956;DHT22;23776;51.592;7.180;2023-04-08T02:00:06;4.90;79.20
37956;DHT22;23776;51.592;7.180;2023-04-08T02:02:35;4.80;79.30
37956;DHT22;23776;51.592;7.180;2023-04-08T02:07:27;4.90;78.10
37956;DHT22;23776;51.592;7.180;2023-04-08T02:17:16;4.80;76.20
37956;DHT22;23776;51.592;7.180;2023-04-08T02:22:24;4.80;75.60
37956;DHT22;23776;51.592;7.180;2023-04-08T02:24:52;4.70;75.60
37956;DHT22;23776;51.592;7.180;2023-04-08T02:27:18;4.70;74.50
37956;DHT22;23776;51.592;7.180;2023-04-08T02:29:46;4.70;73.10
37956;DHT22;23776;51.592;7.180;2023-04-08T02:32:13;4.70;72.70
37956;DHT22;23776;51.592;7.180;2023-04-08T02:37:07;4.70;71.70
37956;DHT22;23776;51.592;7.180;2023-04-08T02:39:33;4.70;76.90
37956;DHT22;23776;51.592;7.180;2023-04-08T02:41:59;4.70;72.90
37956;DHT22;23776;51.592;7.180;2023-04-08T02:49:17;4.60;72.50
37956;DHT22;23776;51.592;7.180;2023-04-08T02:51:42;4.50;74.40
37956;DHT22;23776;51.592;7.180;2023-04-08T02:56:34;4.50;76.80
37956;DHT22;23776;51.592;7.180;2023-04-08T03:08:44;4.40;80.90
37956;DHT22;23776;51.592;7.180;2023-04-08T03:16:01;4.40;82.60
37956;DHT22;23776;51.592;7.180;2023-04-08T03:18:27;4.40;81.70
37956;DHT22;23776;51.592;7.180;2023-04-08T03:35:32;4.20;83.20
37956;DHT22;23776;51.592;7.180;2023-04-08T03:37:58;4.10;82.70
37956;DHT22;23776;51.592;7.180;2023-04-08T03:42:49;4.00;82.70
37956;DHT22;23776;51.592;7.180;2023-04-08T03:50:07;3.90;84.20
37956;DHT22;23776;51.592;7.180;2023-04-08T03:52:33;3.80;81.50
37956;DHT22;23776;51.592;7.180;2023-04-08T03:59:50;3.80;83.90
37956;DHT22;23776;51.592;7.180;2023-04-08T04:12:00;3.70;77.70
37956;DHT22;23776;51.592;7.180;2023-04-08T04:14:26;3.70;76.30
37956;DHT22;23776;51.592;7.180;2023-04-08T04:16:51;3.60;76.50
37956;DHT22;23776;51.592;7.180;2023-04-08T04:21:43;3.60;78.60
37956;DHT22;23776;51.592;7.180;2023-04-08T04:33:53;3.60;80.60
37956;DHT22;23776;51.592;7.180;2023-04-08T04:38:45;3.60;82.90
37956;DHT22;23776;51.592;7.180;2023-04-08T04:43:37;3.70;83.80
37956;DHT22;23776;51.592;7.180;2023-04-08T04:50:59;3.70;83.60
37956;DHT22;23776;51.592;7.180;2023-04-08T05:00:44;3.70;81.80
37956;DHT22;23776;51.592;7.180;2023-04-08T05:12:54;3.90;79.40
37956;DHT22;23776;51.592;7.180;2023-04-08T05:15:19;3.80;78.00
37956;DHT22;23776;51.592;7.180;2023-04-08T05:17:45;3.80;77.20
37956;DHT22;23776;51.592;7.180;2023-04-08T05:20:11;3.80;77.10
37956;DHT22;23776;51.592;7.180;2023-04-08T05:22:37;3.80;78.30
37956;DHT22;23776;51.592;7.180;2023-04-08T05:25:03;3.80;79.10
37956;DHT22;23776;51.592;7.180;2023-04-08T05:37:13;4.00;80.60
37956;DHT22;23776;51.592;7.180;2023-04-08T05:56:42;4.60;81.00
37956;DHT22;23776;51.592;7.180;2023-04-08T05:59:10;4.70;79.20
37956;DHT22;23776;51.592;7.180;2023-04-08T06:08:54;5.00;78.20
37956;DHT22;23776;51.592;7.180;2023-04-08T06:11:20;5.10;76.00
37956;DHT22;23776;51.592;7.180;2023-04-08T06:16:14;5.10;74.70
37956;DHT22;23776;51.592;7.180;2023-04-08T06:35:42;5.60;77.40
37956;DHT22;23776;51.592;7.180;2023-04-08T06:45:26;5.90;73.50
37956;DHT22;23776;51.592;7.180;2023-04-08T06:47:53;6.00;73.60
37956;DHT22;23776;51.592;7.180;2023-04-08T06:52:46;6.20;71.70
37956;DHT22;23776;51.592;7.180;2023-04-08T07:00:05;6.60;67.10
37956;DHT22;23776;51.592;7.180;2023-04-08T07:02:31;6.60;69.40
37956;DHT22;23776;51.592;7.180;2023-04-08T07:04:57;6.70;69.60
37956;DHT22;23776;51.592;7.180;2023-04-08T07:09:49;6.80;68.70
37956;DHT22;23776;51.592;7.180;2023-04-08T07:12:15;6.90;62.40
37956;DHT22;23776;51.592;7.180;2023-04-08T07:19:33;7.00;57.00
37956;DHT22;23776;51.592;7.180;2023-04-08T07:26:51;7.30;55.20
37956;DHT22;23776;51.592;7.180;2023-04-08T07:29:17;7.40;52.00
37956;DHT22;23776;51.592;7.180;2023-04-08T07:31:42;7.40;49.10
37956;DHT22;23776;51.592;7.180;2023-04-08T07:34:09;7.50;43.20
37956;DHT22;23776;51.592;7.180;2023-04-08T07:36:34;7.50;46.80
37956;DHT22;23776;51.592;7.180;2023-04-08T07:39:00;7.50;40.30
37956;DHT22;23776;51.592;7.180;2023-04-08T07:41:26;7.50;43.10
37956;DHT22;23776;51.592;7.180;2023-04-08T07:43:51;7.70;44.70
37956;DHT22;23776;51.592;7.180;2023-04-08T07:48:44;8.00;36.30
37956;DHT22;23776;51.592;7.180;2023-04-08T07:53:36;8.10;24.40
37956;DHT22;23776;51.592;7.180;2023-04-08T07:56:02;8.20;23.20
37956;DHT22;23776;51.592;7.180;2023-04-08T07:58:30;8.30;23.20
37956;DHT22;23776;51.592;7.180;2023-04-08T08:00:56;8.50;23.10
37956;DHT22;23776;51.592;7.180;2023-04-08T08:03:22;8.60;22.30
37956;DHT22;23776;51.592;7.180;2023-04-08T08:05:48;8.70;16.60
37956;DHT22;23776;51.592;7.180;2023-04-08T08:10:40;9.00;7.60
37956;DHT22;23776;51.592;7.180;2023-04-08T08:15:33;8.90;1.00
37956;DHT22;23776;51.592;7.180;2023-04-08T08:20:24;8.90;1.00
37956;DHT22;23776;51.592;7.180;2023-04-08T08:22:50;9.00;1.00
37956;DHT22;23776;51.592;7.180;2023-04-08T08:25:16;9.00;1.00
37956;DHT22;23776;51.592;7.180;2023-04-08T08:30:09;9.00;1.00
37956;DHT22;23776;51.592;7.180;2023-04-08T08:35:01;9.10;1.00
37956;DHT22;23776;51.592;7.180;2023-04-08T08:37:27;9.20;1.00
37956;DHT22;23776;51.592;7.180;2023-04-08T08:39:52;9.30;1.00
37956;DHT22;23776;51.592;7.180;2023-04-08T08:44:45;9.50;1.00
37956;DHT22;23776;51.592;7.180;2023-04-08T08:47:11;9.50;1.00
37956;DHT22;23776;51.592;7.180;2023-04-08T08:49:36;9.50;1.00
37956;DHT22;23776;51.592;7.180;2023-04-08T08:52:04;9.70;1.00
37956;DHT22;23776;51.592;7.180;2023-04-08T08:54:31;9.80;1.00
37956;DHT22;23776;51.592;7.180;2023-04-08T08:59:22;9.90;1.00
37956;DHT22;23776;51.592;7.180;2023-04-08T09:01:48;9.90;1.00
37956;DHT22;23776;51.592;7.180;2023-04-08T09:04:18;9.90;1.00
37956;DHT22;23776;51.592;7.180;2023-04-08T09:06:49;9.90;1.00
37956;DHT22;23776;51.592;7.180;2023-04-08T09:09:18;9.90;1.00
37956;DHT22;23776;51.592;7.180;2023-04-08T09:11:47;9.90;1.00
37956;DHT22;23776;51.592;7.180;2023-04-08T09:14:23;10.00;1.00
37956;DHT22;23776;51.592;7.180;2023-04-08T09:16:50;10.20;1.00
37956;DHT22;23776;51.592;7.180;2023-04-08T09:19:16;10.20;1.00
37956;DHT22;23776;51.592;7.180;2023-04-08T09:21:42;10.20;1.00
37956;DHT22;23776;51.592;7.180;2023-04-08T09:24:09;10.10;1.00
37956;DHT22;23776;51.592;7.180;2023-04-08T09:29:17;10.00;1.00
37956;DHT22;23776;51.592;7.180;2023-04-08T09:31:42;9.90;1.00
37956;DHT22;23776;51.592;7.180;2023-04-08T09:34:15;9.80;1.00
37956;DHT22;23776;51.592;7.180;2023-04-08T09:36:42;9.80;1.00
37956;DHT22;23776;51.592;7.180;2023-04-08T09:39:13;9.70;1.00
37956;DHT22;23776;51.592;7.180;2023-04-08T09:41:40;9.70;1.00
37956;DHT22;23776;51.592;7.180;2023-04-08T09:44:15;9.60;1.00
37956;DHT22;23776;51.592;7.180;2023-04-08T09:47:00;9.50;1.00
37956;DHT22;23776;51.592;7.180;2023-04-08T09:49:37;9.50;1.00
37956;DHT22;23776;51.592;7.180;2023-04-08T09:52:12;9.50;1.00
37956;DHT22;23776;51.592;7.180;2023-04-08T09:55:00;9.50;1.00
37956;DHT22;23776;51.592;7.180;2023-04-08T10:00:17;9.50;1.00
37956;DHT22;23776;51.592;7.180;2023-04-08T10:05:40;9.50;1.00
37956;DHT22;23776;51.592;7.180;2023-04-08T10:08:08;9.50;1.00
37956;DHT22;23776;51.592;7.180;2023-04-08T10:10:34;9.60;1.00
37956;DHT22;23776;51.592;7.180;2023-04-08T10:13:02;9.70;1.00
37956;DHT22;23776;51.592;7.180;2023-04-08T10:15:30;10.00;1.00
37956;DHT22;23776;51.592;7.180;2023-04-08T10:20:48;10.40;1.00
37956;DHT22;23776;51.592;7.180;2023-04-08T10:23:16;10.70;1.00
37956;DHT22;23776;51.592;7.180;2023-04-08T10:25:46;10.70;1.00
37956;DHT22;23776;51.592;7.180;2023-04-08T10:30:45;10.80;1.00
37956;DHT22;23776;51.592;7.180;2023-04-08T10:33:16;11.00;1.00
37956;DHT22;23776;51.592;7.180;2023-04-08T10:35:53;11.10;1.00
37956;DHT22;23776;51.592;7.180;2023-04-08T10:38:19;11.20;1.00
37956;DHT22;23776;51.592;7.180;2023-04-08T10:40:47;11.20;1.00
37956;DHT22;23776;51.592;7.180;2023-04-08T10:43:13;11.40;99.90
37956;DHT22;23776;51.592;7.180;2023-04-08T10:45:41;11.50;99.90
37956;DHT22;23776;51.592;7.180;2023-04-08T10:48:21;11.70;99.90
37956;DHT22;23776;51.592;7.180;2023-04-08T10:51:03;11.70;99.90
37956;DHT22;23776;51.592;7.180;2023-04-08T10:53:31;11.70;99.90
37956;DHT22;23776;51.592;7.180;2023-04-08T10:56:16;11.80;99.90
37956;DHT22;23776;51.592;7.180;2023-04-08T10:58:51;12.00;99.90
37956;DHT22;23776;51.592;7.180;2023-04-08T11:01:17;12.40;99.90
37956;DHT22;23776;51.592;7.180;2023-04-08T11:03:43;12.70;1.00
37956;DHT22;23776;51.592;7.180;2023-04-08T11:06:09;12.60;99.90
37956;DHT22;23776;51.592;7.180;2023-04-08T11:08:35;12.80;60.80
37956;DHT22;23776;51.592;7.180;2023-04-08T11:11:02;13.10;1.00
37956;DHT22;23776;51.592;7.180;2023-04-08T11:13:30;13.10;1.00
37956;DHT22;23776;51.592;7.180;2023-04-08T11:15:58;13.30;1.00
37956;DHT22;23776;51.592;7.180;2023-04-08T11:18:24;13.40;1.00
37956;DHT22;23776;51.592;7.180;2023-04-08T11:20:51;13.60;99.90
37956;DHT22;23776;51.592;7.180;2023-04-08T11:23:17;13.50;99.90
37956;DHT22;23776;51.592;7.180;2023-04-08T11:25:45;13.50;99.90
37956;DHT22;23776;51.592;7.180;2023-04-08T11:28:11;13.70;99.90
37956;DHT22;23776;51.592;7.180;2023-04-08T11:30:39;13.90;99.90
37956;DHT22;23776;51.592;7.180;2023-04-08T11:33:06;13.90;1.00
37956;DHT22;23776;51.592;7.180;2023-04-08T11:35:32;14.00;99.90
37956;DHT22;23776;51.592;7.180;2023-04-08T11:37:58;13.90;99.90
37956;DHT22;23776;51.592;7.180;2023-04-08T11:40:24;14.00;99.90
37956;DHT22;23776;51.592;7.180;2023-04-08T11:42:51;14.10;99.90
37956;DHT22;23776;51.592;7.180;2023-04-08T11:45:18;14.10;1.00
37956;DHT22;23776;51.592;7.180;2023-04-08T11:47:46;14.00;99.90
37956;DHT22;23776;51.592;7.180;2023-04-08T11:50:12;14.00;99.90
37956;DHT22;23776;51.592;7.180;2023-04-08T11:52:41;14.00;1.00
37956;DHT22;23776;51.592;7.180;2023-04-08T11:55:11;13.90;99.90
37956;DHT22;23776;51.592;7.180;2023-04-08T11:57:37;13.90;99.90
37956;DHT22;23776;51.592;7.180;2023-04-08T12:00:07;13.90;1.00
37956;DHT22;23776;51.592;7.180;2023-04-08T12:02:34;13.90;1.00
37956;DHT22;23776;51.592;7.180;2023-04-08T12:04:59;14.00;8.20
37956;DHT22;23776;51.592;7.180;2023-04-08T12:07:25;14.00;82.70
37956;DHT22;23776;51.592;7.180;2023-04-08T12:09:51;13.90;99.90
37956;DHT22;23776;51.592;7.180;2023-04-08T12:12:17;13.80;99.90
37956;DHT22;23776;51.592;7.180;2023-04-08T12:14:42;13.50;1.00
37956;DHT22;23776;51.592;7.180;2023-04-08T12:17:08;13.50;1.00
37956;DHT22;23776;51.592;7.180;2023-04-08T12:19:34;13.40;1.00
37956;DHT22;23776;51.592;7.180;2023-04-08T12:21:59;13.40;99.90
37956;DHT22;23776;51.592;7.180;2023-04-08T12:24:25;13.30;99.90
37956;DHT22;23776;51.592;7.180;2023-04-08T12:26:51;13.40;99.90
37956;DHT22;23776;51.592;7.180;2023-04-08T12:29:17;13.40;99.90
37956;DHT22;23776;51.592;7.180;2023-04-08T12:31:42;13.50;99.90
37956;DHT22;23776;51.592;7.180;2023-04-08T12:34:08;13.60;3.60
37956;DHT22;23776;51.592;7.180;2023-04-08T12:36:33;13.60;5.50
37956;DHT22;23776;51.592;7.180;2023-04-08T12:39:00;13.70;99.90
37956;DHT22;23776;51.592;7.180;2023-04-08T12:41:26;13.60;99.90
37956;DHT22;23776;51.592;7.180;2023-04-08T12:43:51;13.90;1.00
37956;DHT22;23776;51.592;7.180;2023-04-08T12:46:17;13.90;1.00
37956;DHT22;23776;51.592;7.180;2023-04-08T12:48:42;14.00;1.00
37956;DHT22;23776;51.592;7.180;2023-04-08T12:51:09;13.90;99.90
37956;DHT22;23776;51.592;7.180;2023-04-08T12:53:35;13.60;99.90
37956;DHT22;23776;51.592;7.180;2023-04-08T12:56:00;13.60;99.90
37956;DHT22;23776;51.592;7.180;2023-04-08T12:58:27;13.50;1.00
37956;DHT22;23776;51.592;7.180;2023-04-08T13:00:52;13.60;1.00
37956;DHT22;23776;51.592;7.180;2023-04-08T13:03:18;13.70;90.90
37956;DHT22;23776;51.592;7.180;2023-04-08T13:05:44;13.80;72.60
37956;DHT22;23776;51.592;7.180;2023-04-08T13:08:10;14.00;1.00
37956;DHT22;23776;51.592;7.180;2023-04-08T13:10:38;14.00;21.00
37956;DHT22;23776;51.592;7.180;2023-04-08T13:13:04;14.30;29.90
37956;DHT22;23776;51.592;7.180;2023-04-08T13:15:29;14.30;1.00
37956;DHT22;23776;51.592;7.180;2023-04-08T13:17:55;14.40;1.00
37956;DHT22;23776;51.592;7.180;2023-04-08T13:20:21;14.30;99.90
37956;DHT22;23776;51.592;7.180;2023-04-08T13:22:52;14.20;1.00
37956;DHT22;23776;51.592;7.180;2023-04-08T13:25:18;14.00;99.90
37956;DHT22;23776;51.592;7.180;2023-04-08T13:27:44;14.00;99.90
37956;DHT22;23776;51.592;7.180;2023-04-08T13:30:10;14.00;99.90
37956;DHT22;23776;51.592;7.180;2023-04-08T13:32:36;14.00;99.90
37956;DHT22;23776;51.592;7.180;2023-04-08T13:35:02;14.10;30.30
37956;DHT22;23776;51.592;7.180;2023-04-08T13:37:27;14.10;1.00
37956;DHT22;23776;51.592;7.180;2023-04-08T13:39:53;14.10;99.90
37956;DHT22;23776;51.592;7.180;2023-04-08T13:42:19;14.20;99.90
37956;DHT22;23776;51.592;7.180;2023-04-08T13:44:44;14.10;99.90
37956;DHT22;23776;51.592;7.180;2023-04-08T13:47:10;14.00;1.00
37956;DHT22;23776;51.592;7.180;2023-04-08T13:49:37;13.90;99.90
37956;DHT22;23776;51.592;7.180;2023-04-08T13:52:03;13.70;99.90
37956;DHT22;23776;51.592;7.180;2023-04-08T13:54:28;13.60;99.90
37956;DHT22;23776;51.592;7.180;2023-04-08T13:56:54;13.70;1.00
37956;DHT22;23776;51.592;7.180;2023-04-08T13:59:20;13.50;1.00
37956;DHT22;23776;51.592;7.180;2023-04-08T14:01:45;13.70;1.00
37956;DHT22;23776;51.592;7.180;2023-04-08T14:04:11;13.60;1.00
37956;DHT22;23776;51.592;7.180;2023-04-08T14:06:36;13.60;1.00
37956;DHT22;23776;51.592;7.180;2023-04-08T14:09:02;13.40;15.70
37956;DHT22;23776;51.592;7.180;2023-04-08T14:11:28;13.60;99.90
37956;DHT22;23776;51.592;7.180;2023-04-08T14:13:53;13.70;99.90
37956;DHT22;23776;51.592;7.180;2023-04-08T14:16:19;13.60;99.90
37956;DHT22;23776;51.592;7.180;2023-04-08T14:18:44;13.60;99.90
37956;DHT22;23776;51.592;7.180;2023-04-08T14:21:10;13.60;99.90
37956;DHT22;23776;51.592;7.180;2023-04-08T14:23:38;13.50;99.90
37956;DHT22;23776;51.592;7.180;2023-04-08T14:26:04;13.50;99.90
37956;DHT22;23776;51.592;7.180;2023-04-08T14:28:30;13.40;1.00
37956;DHT22;23776;51.592;7.180;2023-04-08T14:30:55;13.40;99.90
37956;DHT22;23776;51.592;7.180;2023-04-08T14:33:21;13.40;99.90
37956;DHT22;23776;51.592;7.180;2023-04-08T14:35:46;13.50;99.90
37956;DHT22;23776;51.592;7.180;2023-04-08T14:38:12;13.70;99.90
37956;DHT22;23776;51.592;7.180;2023-04-08T14:40:37;13.70;93.70
37956;DHT22;23776;51.592;7.180;2023-04-08T14:43:03;13.60;1.00
37956;DHT22;23776;51.592;7.180;2023-04-08T14:45:29;13.40;66.20
37956;DHT22;23776;51.592;7.180;2023-04-08T14:47:54;13.30;99.90
37956;DHT22;23776;51.592;7.180;2023-04-08T14:50:20;13.30;1.00
37956;DHT22;23776;51.592;7.180;2023-04-08T14:52:46;13.10;99.90
37956;DHT22;23776;51.592;7.180;2023-04-08T14:55:13;12.90;99.90
37956;DHT22;23776;51.592;7.180;2023-04-08T14:57:39;12.80;99.90
37956;DHT22;23776;51.592;7.180;2023-04-08T15:00:05;12.80;3.00
37956;DHT22;23776;51.592;7.180;2023-04-08T15:02:31;12.80;99.90
37956;DHT22;23776;51.592;7.180;2023-04-08T15:04:57;12.60;99.90
37956;DHT22;23776;51.592;7.180;2023-04-08T15:07:23;12.50;99.90
37956;DHT22;23776;51.592;7.180;2023-04-08T15:09:48;12.60;1.00
37956;DHT22;23776;51.592;7.180;2023-04-08T15:12:14;12.50;99.90
37956;DHT22;23776;51.592;7.180;2023-04-08T15:14:40;12.60;99.90
37956;DHT22;23776;51.592;7.180;2023-04-08T15:17:05;12.60;99.90
37956;DHT22;23776;51.592;7.180;2023-04-08T15:19:31;12.70;99.90
37956;DHT22;23776;51.592;7.180;2023-04-08T15:21:57;12.70;99.90
37956;DHT22;23776;51.592;7.180;2023-04-08T15:24:22;12.80;1.00
37956;DHT22;23776;51.592;7.180;2023-04-08T15:26:48;12.70;99.90
37956;DHT22;23776;51.592;7.180;2023-04-08T15:29:14;12.70;99.90
37956;DHT22;23776;51.592;7.180;2023-04-08T15:31:39;12.70;1.00
37956;DHT22;23776;51.592;7.180;2023-04-08T15:34:05;12.70;1.00
37956;DHT22;23776;51.592;7.180;2023-04-08T15:36:31;12.70;1.00
37956;DHT22;23776;51.592;7.180;2023-04-08T15:38:57;12.80;22.30
37956;DHT22;23776;51.592;7.180;2023-04-08T15:41:22;12.70;65.40
37956;DHT22;23776;51.592;7.180;2023-04-08T15:43:48;12.80;99.90
37956;DHT22;23776;51.592;7.180;2023-04-08T15:46:21;12.70;99.90
37956;DHT22;23776;51.592;7.180;2023-04-08T15:48:47;12.70;99.90
37956;DHT22;23776;51.592;7.180;2023-04-08T15:51:12;12.70;99.90
37956;DHT22;23776;51.592;7.180;2023-04-08T15:53:39;12.60;99.90
37956;DHT22;23776;51.592;7.180;2023-04-08T15:56:05;13.30;1.00
37956;DHT22;23776;51.592;7.180;2023-04-08T15:58:31;12.50;1.00
37956;DHT22;23776;51.592;7.180;2023-04-08T16:00:56;12.50;1.00
37956;DHT22;23776;51.592;7.180;2023-04-08T16:03:25;12.50;1.00
37956;DHT22;23776;51.592;7.180;2023-04-08T16:05:51;12.50;1.00
37956;DHT22;23776;51.592;7.180;2023-04-08T16:08:17;12.50;1.00
37956;DHT22;23776;51.592;7.180;2023-04-08T16:10:43;12.50;1.00
37956;DHT22;23776;51.592;7.180;2023-04-08T16:13:08;12.50;1.00
37956;DHT22;23776;51.592;7.180;2023-04-08T16:15:34;12.40;1.00
37956;DHT22;23776;51.592;7.180;2023-04-08T16:18:03;12.40;2.30
37956;DHT22;23776;51.592;7.180;2023-04-08T16:20:30;12.50;12.60
37956;DHT22;23776;51.592;7.180;2023-04-08T16:22:56;12.50;1.00
37956;DHT22;23776;51.592;7.180;2023-04-08T16:25:21;12.50;1.00
37956;DHT22;23776;51.592;7.180;2023-04-08T16:27:47;12.50;1.00
37956;DHT22;23776;51.592;7.180;2023-04-08T16:30:13;12.60;1.00
37956;DHT22;23776;51.592;7.180;2023-04-08T16:32:39;12.60;1.00
37956;DHT22;23776;51.592;7.180;2023-04-08T16:35:06;12.60;1.00
37956;DHT22;23776;51.592;7.180;2023-04-08T16:37:32;12.60;1.00
37956;DHT22;23776;51.592;7.180;2023-04-08T16:39:58;12.60;99.90
37956;DHT22;23776;51.592;7.180;2023-04-08T16:42:24;12.50;99.90
37956;DHT22;23776;51.592;7.180;2023-04-08T16:44:55;12.50;1.00
37956;DHT22;23776;51.592;7.180;2023-04-08T16:47:20;12.60;1.00
37956;DHT22;23776;51.592;7.180;2023-04-08T16:49:46;12.40;1.00
37956;DHT22;23776;51.592;7.180;2023-04-08T16:52:12;12.40;99.90
37956;DHT22;23776;51.592;7.180;2023-04-08T16:54:37;12.20;99.90
37956;DHT22;23776;51.592;7.180;2023-04-08T16:57:03;12.20;99.90
37956;DHT22;23776;51.592;7.180;2023-04-08T16:59:29;12.10;99.90
37956;DHT22;23776;51.592;7.180;2023-04-08T17:01:55;12.00;99.90
37956;DHT22;23776;51.592;7.180;2023-04-08T17:04:21;11.90;1.00
37956;DHT22;23776;51.592;7.180;2023-04-08T17:06:47;11.90;1.00
37956;DHT22;23776;51.592;7.180;2023-04-08T17:09:13;11.90;1.00
37956;DHT22;23776;51.592;7.180;2023-04-08T17:11:39;11.80;1.00
37956;DHT22;23776;51.592;7.180;2023-04-08T17:14:04;11.80;1.00
37956;DHT22;23776;51.592;7.180;2023-04-08T17:16:30;11.80;8.00
37956;DHT22;23776;51.592;7.180;2023-04-08T17:18:56;11.80;7.50
37956;DHT22;23776;51.592;7.180;2023-04-08T17:21:21;11.80;1.00
37956;DHT22;23776;51.592;7.180;2023-04-08T17:23:47;11.80;45.50
37956;DHT22;23776;51.592;7.180;2023-04-08T17:26:12;11.80;1.00
37956;DHT22;23776;51.592;7.180;2023-04-08T17:28:38;11.80;73.20
37956;DHT22;23776;51.592;7.180;2023-04-08T17:31:04;11.80;99.90
37956;DHT22;23776;51.592;7.180;2023-04-08T17:33:30;11.70;99.90
37956;DHT22;23776;51.592;7.180;2023-04-08T17:35:55;11.70;99.90
37956;DHT22;23776;51.592;7.180;2023-04-08T17:38:22;11.70;99.90
37956;DHT22;23776;51.592;7.180;2023-04-08T17:40:47;11.60;99.90
37956;DHT22;23776;51.592;7.180;2023-04-08T17:43:13;11.60;99.90
37956;DHT22;23776;51.592;7.180;2023-04-08T17:45:38;11.60;99.90
37956;DHT22;23776;51.592;7.180;2023-04-08T17:48:04;11.50;99.90
37956;DHT22;23776;51.592;7.180;2023-04-08T17:50:31;11.40;99.90
37956;DHT22;23776;51.592;7.180;2023-04-08T17:52:57;11.40;99.90
37956;DHT22;23776;51.592;7.180;2023-04-08T17:55:23;10.20;99.90
37956;DHT22;23776;51.592;7.180;2023-04-08T17:57:49;11.30;99.90
37956;DHT22;23776;51.592;7.180;2023-04-08T18:00:15;11.30;99.90
37956;DHT22;23776;51.592;7.180;2023-04-08T18:02:41;11.30;99.90
37956;DHT22;23776;51.592;7.180;2023-04-08T18:05:07;11.30;99.90
37956;DHT22;23776;51.592;7.180;2023-04-08T18:07:33;11.40;99.90
37956;DHT22;23776;51.592;7.180;2023-04-08T18:09:59;11.40;99.90
37956;DHT22;23776;51.592;7.180;2023-04-08T18:12:27;11.40;99.90
37956;DHT22;23776;51.592;7.180;2023-04-08T18:14:52;11.30;99.90
37956;DHT22;23776;51.592;7.180;2023-04-08T18:17:18;11.30;99.90
37956;DHT22;23776;51.592;7.180;2023-04-08T18:19:43;11.20;1.00
37956;DHT22;23776;51.592;7.180;2023-04-08T18:22:09;11.30;1.00
37956;DHT22;23776;51.592;7.180;2023-04-08T18:24:35;11.20;99.90
37956;DHT22;23776;51.592;7.180;2023-04-08T18:27:01;9.20;99.90
37956;DHT22;23776;51.592;7.180;2023-04-08T18:29:28;11.20;99.90
37956;DHT22;23776;51.592;7.180;2023-04-08T18:31:54;11.10;99.90
37956;DHT22;23776;51.592;7.180;2023-04-08T18:34:20;11.00;1.00
37956;DHT22;23776;51.592;7.180;2023-04-08T18:36:47;14.00;99.90
37956;DHT22;23776;51.592;7.180;2023-04-08T18:39:13;10.10;99.90
37956;DHT22;23776;51.592;7.180;2023-04-08T18:41:38;11.00;1.00
37956;DHT22;23776;51.592;7.180;2023-04-08T18:44:04;11.00;1.00
37956;DHT22;23776;51.592;7.180;2023-04-08T18:46:30;11.00;1.00
37956;DHT22;23776;51.592;7.180;2023-04-08T18:48:55;11.00;1.00
37956;DHT22;23776;51.592;7.180;2023-04-08T18:51:21;11.00;1.00
37956;DHT22;23776;51.592;7.180;2023-04-08T18:53:47;11.00;1.00
37956;DHT22;23776;51.592;7.180;2023-04-08T18:56:17;11.00;1.00
37956;DHT22;23776;51.592;7.180;2023-04-08T18:58:43;11.00;1.00
37956;DHT22;23776;51.592;7.180;2023-04-08T19:01:13;11.00;1.00
37956;DHT22;23776;51.592;7.180;2023-04-08T19:03:40;12.60;1.00
37956;DHT22;23776;51.592;7.180;2023-04-08T19:06:08;10.90;1.00
37956;DHT22;23776;51.592;7.180;2023-04-08T19:08:35;10.90;1.00
37956;DHT22;23776;51.592;7.180;2023-04-08T19:11:01;10.90;1.00
37956;DHT22;23776;51.592;7.180;2023-04-08T19:13:27;10.90;1.00
37956;DHT22;23776;51.592;7.180;2023-04-08T19:15:53;10.90;1.00
37956;DHT22;23776;51.592;7.180;2023-04-08T19:18:19;10.90;1.00
37956;DHT22;23776;51.592;7.180;2023-04-08T19:20:45;10.90;1.00
37956;DHT22;23776;51.592;7.180;2023-04-08T19:23:11;10.90;1.00
37956;DHT22;23776;51.592;7.180;2023-04-08T19:25:37;10.90;1.00
37956;DHT22;23776;51.592;7.180;2023-04-08T19:28:03;10.90;1.00
37956;DHT22;23776;51.592;7.180;2023-04-08T19:30:37;10.90;1.00
37956;DHT22;23776;51.592;7.180;2023-04-08T19:33:03;10.80;1.00
37956;DHT22;23776;51.592;7.180;2023-04-08T19:35:29;10.80;1.00
37956;DHT22;23776;51.592;7.180;2023-04-08T19:37:55;10.90;1.00
37956;DHT22;23776;51.592;7.180;2023-04-08T19:40:21;10.80;1.00
37956;DHT22;23776;51.592;7.180;2023-04-08T19:42:46;10.80;1.00
37956;DHT22;23776;51.592;7.180;2023-04-08T19:45:12;10.80;1.00
37956;DHT22;23776;51.592;7.180;2023-04-08T19:47:41;10.80;1.00
37956;DHT22;23776;51.592;7.180;2023-04-08T19:50:11;10.80;1.00
37956;DHT22;23776;51.592;7.180;2023-04-08T19:52:37;10.60;1.00
37956;DHT22;23776;51.592;7.180;2023-04-08T19:55:06;10.80;1.00
37956;DHT22;23776;51.592;7.180;2023-04-08T19:57:32;10.80;1.00
37956;DHT22;23776;51.592;7.180;2023-04-08T19:59:58;10.80;1.00
37956;DHT22;23776;51.592;7.180;2023-04-08T20:02:24;10.80;1.00
37956;DHT22;23776;51.592;7.180;2023-04-08T20:04:50;10.70;1.00
37956;DHT22;23776;51.592;7.180;2023-04-08T20:07:16;9.20;1.00
37956;DHT22;23776;51.592;7.180;2023-04-08T20:09:41;10.70;1.00
37956;DHT22;23776;51.592;7.180;2023-04-08T20:12:07;10.70;1.00